Aviation Digital Data Service (ADDS)

Output produced by METARs form (1405 UTC 23 January 2019)
found at http://www.aviationweather.gov/metar/data/
 
METAR text: NLWW 231300Z AUTO 00000KT 9999 SCT024/// BKN170/// 26/25 Q1007 TEMPO 4000 SHRA FEW018CB
Conditions at: NLWW (HIHIFO ILE WALLI, WS) observed 1300 UTC 23 January 2019
Temperature: 26.0°C (79°F)
Dewpoint: 25.0°C (77°F) [RH = 94%]
Pressure (altimeter): 29.73 inches Hg (1007.0 mb)
Winds: calm
Visibility: 6 or more miles (10+ km)
Ceiling: 17000 feet AGL
Clouds: scattered clouds at 2400 feet AGL
broken clouds at 17000 feet AGL
Weather: no significant weather observed at this time

METAR text: NLWW 231200Z AUTO 00000KT 9999 FEW026/// 26/25 Q1008 TEMPO 4000 SHRA FEW018CB
Conditions at: NLWW (HIHIFO ILE WALLI, WS) observed 1200 UTC 23 January 2019
Temperature: 26.0°C (79°F)
Dewpoint: 25.0°C (77°F) [RH = 94%]
Pressure (altimeter): 29.76 inches Hg (1008.0 mb)
Winds: calm
Visibility: 6 or more miles (10+ km)
Ceiling: at least 12,000 feet AGL
Clouds: few clouds at 2600 feet AGL
Weather: no significant weather observed at this time

METAR text: NLWW 231100Z AUTO 00000KT 9999 NCD 26/25 Q1008 TEMPO 2000 SHRA BKN012 SCT016CB
Conditions at: NLWW (HIHIFO ILE WALLI, WS) observed 1100 UTC 23 January 2019
Temperature: 26.0°C (79°F)
Dewpoint: 25.0°C (77°F) [RH = 94%]
Pressure (altimeter): 29.76 inches Hg (1008.0 mb)
Winds: calm
Visibility: 6 or more miles (10+ km)
Ceiling: at least 12,000 feet AGL
Clouds: sky clear below 12,000 feet AGL
Weather: no significant weather observed at this time

METAR text: NLWW 231000Z AUTO 00000KT 9999 FEW022/// SCT028/// BKN036/// 26/25 Q1008 TEMPO 2000 SHRA BKN012 SCT016CB
Conditions at: NLWW (HIHIFO ILE WALLI, WS) observed 1000 UTC 23 January 2019
Temperature: 26.0°C (79°F)
Dewpoint: 25.0°C (77°F) [RH = 94%]
Pressure (altimeter): 29.76 inches Hg (1008.0 mb)
Winds: calm
Visibility: 6 or more miles (10+ km)
Ceiling: 3600 feet AGL
Clouds: few clouds at 2200 feet AGL
scattered clouds at 2800 feet AGL
broken clouds at 3600 feet AGL
Weather: no significant weather observed at this time

METAR text: NLWW 230900Z AUTO 00000KT 9999 NCD 26/25 Q1008 TEMPO 2000 SHRA BKN012 SCT016CB
Conditions at: NLWW (HIHIFO ILE WALLI, WS) observed 0900 UTC 23 January 2019
Temperature: 26.0°C (79°F)
Dewpoint: 25.0°C (77°F) [RH = 94%]
Pressure (altimeter): 29.76 inches Hg (1008.0 mb)
Winds: calm
Visibility: 6 or more miles (10+ km)
Ceiling: at least 12,000 feet AGL
Clouds: sky clear below 12,000 feet AGL
Weather: no significant weather observed at this time

METAR text: NLWW 230800Z AUTO 00000KT 9999 NCD 27/25 Q1007 TEMPO 2000 SHRA BKN012 SCT016CB
Conditions at: NLWW (HIHIFO ILE WALLI, WS) observed 0800 UTC 23 January 2019
Temperature: 27.0°C (81°F)
Dewpoint: 25.0°C (77°F) [RH = 89%]
Pressure (altimeter): 29.73 inches Hg (1007.0 mb)
Winds: calm
Visibility: 6 or more miles (10+ km)
Ceiling: at least 12,000 feet AGL
Clouds: sky clear below 12,000 feet AGL
Weather: no significant weather observed at this time

METAR text: NLWW 230700Z AUTO 00000KT 9999 FEW020/// 27/25 Q1006 TEMPO 2000 SHRA BKN012 SCT016CB
Conditions at: NLWW (HIHIFO ILE WALLI, WS) observed 0700 UTC 23 January 2019
Temperature: 27.0°C (81°F)
Dewpoint: 25.0°C (77°F) [RH = 89%]
Pressure (altimeter): 29.70 inches Hg (1006.0 mb)
Winds: calm
Visibility: 6 or more miles (10+ km)
Ceiling: at least 12,000 feet AGL
Clouds: few clouds at 2000 feet AGL
Weather: no significant weather observed at this time

METAR text: NLWW 230600Z AUTO 29002KT 9999 NCD 30/25 Q1006 TEMPO 2000 SHRA BKN012 SCT016CB
Conditions at: NLWW (HIHIFO ILE WALLI, WS) observed 0600 UTC 23 January 2019
Temperature: 30.0°C (86°F)
Dewpoint: 25.0°C (77°F) [RH = 75%]
Pressure (altimeter): 29.70 inches Hg (1006.0 mb)
Winds: from the WNW (290 degrees) at 2 MPH (2 knots; 1.0 m/s)
Visibility: 6 or more miles (10+ km)
Ceiling: at least 12,000 feet AGL
Clouds: sky clear below 12,000 feet AGL
Weather: no significant weather observed at this time

METAR text: NLWW 230500Z AUTO VRB03KT 9999 FEW022/// 31/25 Q1005 TEMPO 2000 SHRA BKN012 SCT016CB
Conditions at: NLWW (HIHIFO ILE WALLI, WS) observed 0500 UTC 23 January 2019
Temperature: 31.0°C (88°F)
Dewpoint: 25.0°C (77°F) [RH = 71%]
Pressure (altimeter): 29.68 inches Hg (1005.0 mb)
Winds: variable direction winds at 3 MPH (3 knots; 1.5 m/s)
Visibility: 6 or more miles (10+ km)
Ceiling: at least 12,000 feet AGL
Clouds: few clouds at 2200 feet AGL
Weather: no significant weather observed at this time

METAR text: NLWW 230400Z 30004KT 260V340 9999 SCT025 SCT260 31/25 Q1005 TEMPO 2000 SHRA BKN012 SCT016CB
Conditions at: NLWW (HIHIFO ILE WALLI, WS) observed 0400 UTC 23 January 2019
Temperature: 31.0°C (88°F)
Dewpoint: 25.0°C (77°F) [RH = 71%]
Pressure (altimeter): 29.68 inches Hg (1005.0 mb)
Winds: from the WNW (300 degrees) at 5 MPH (4 knots; 2.1 m/s)
Visibility: 6 or more miles (10+ km)
Ceiling: at least 12,000 feet AGL
Clouds: scattered clouds at 2500 feet AGL
scattered clouds at 26000 feet AGL
Weather: no significant weather observed at this time

METAR text: NLWW 230300Z 30005KT 270V350 9999 FEW025 31/24 Q1006 TEMPO 2000 SHRA BKN012 SCT016CB
Conditions at: NLWW (HIHIFO ILE WALLI, WS) observed 0300 UTC 23 January 2019
Temperature: 31.0°C (88°F)
Dewpoint: 24.0°C (75°F) [RH = 66%]
Pressure (altimeter): 29.70 inches Hg (1006.0 mb)
Winds: from the WNW (300 degrees) at 6 MPH (5 knots; 2.6 m/s)
Visibility: 6 or more miles (10+ km)
Ceiling: at least 12,000 feet AGL
Clouds: few clouds at 2500 feet AGL
Weather: no significant weather observed at this time

METAR text: NLWW 230200Z 31006KT 260V350 9999 FEW023 31/25 Q1006 TEMPO 2000 SHRA BKN012 SCT016CB
Conditions at: NLWW (HIHIFO ILE WALLI, WS) observed 0200 UTC 23 January 2019
Temperature: 31.0°C (88°F)
Dewpoint: 25.0°C (77°F) [RH = 71%]
Pressure (altimeter): 29.70 inches Hg (1006.0 mb)
Winds: from the NW (310 degrees) at 7 MPH (6 knots; 3.1 m/s)
Visibility: 6 or more miles (10+ km)
Ceiling: at least 12,000 feet AGL
Clouds: few clouds at 2300 feet AGL
Weather: no significant weather observed at this time

METAR text: NLWW 230100Z 30007KT 220V350 9999 FEW022 31/25 Q1006 TEMPO 2000 SHRA BKN012 SCT016CB
Conditions at: NLWW (HIHIFO ILE WALLI, WS) observed 0100 UTC 23 January 2019
Temperature: 31.0°C (88°F)
Dewpoint: 25.0°C (77°F) [RH = 71%]
Pressure (altimeter): 29.70 inches Hg (1006.0 mb)
Winds: from the WNW (300 degrees) at 8 MPH (7 knots; 3.6 m/s)
Visibility: 6 or more miles (10+ km)
Ceiling: at least 12,000 feet AGL
Clouds: few clouds at 2200 feet AGL
Weather: no significant weather observed at this time

METAR text: NLWW 230000Z 32006KT 270V350 9999 FEW023 32/25 Q1006 TEMPO 2000 SHRA BKN012 SCT016CB
Conditions at: NLWW (HIHIFO ILE WALLI, WS) observed 0000 UTC 23 January 2019
Temperature: 32.0°C (90°F)
Dewpoint: 25.0°C (77°F) [RH = 67%]
Pressure (altimeter): 29.70 inches Hg (1006.0 mb)
Winds: from the NW (320 degrees) at 7 MPH (6 knots; 3.1 m/s)
Visibility: 6 or more miles (10+ km)
Ceiling: at least 12,000 feet AGL
Clouds: few clouds at 2300 feet AGL
Weather: no significant weather observed at this time

METAR text: NLWW 222300Z 31005KT 270V350 9999 FEW020 31/25 Q1007 NOSIG
Conditions at: NLWW (HIHIFO ILE WALLI, WS) observed 2300 UTC 22 January 2019
Temperature: 31.0°C (88°F)
Dewpoint: 25.0°C (77°F) [RH = 71%]
Pressure (altimeter): 29.73 inches Hg (1007.0 mb)
Winds: from the NW (310 degrees) at 6 MPH (5 knots; 2.6 m/s)
Visibility: 6 or more miles (10+ km)
Ceiling: at least 12,000 feet AGL
Clouds: few clouds at 2000 feet AGL
Weather: no significant weather observed at this time

METAR text: NLWW 222200Z 34005KT 290V020 9999 FEW020 SCT050 31/25 Q1007 NOSIG
Conditions at: NLWW (HIHIFO ILE WALLI, WS) observed 2200 UTC 22 January 2019
Temperature: 31.0°C (88°F)
Dewpoint: 25.0°C (77°F) [RH = 71%]
Pressure (altimeter): 29.73 inches Hg (1007.0 mb)
Winds: from the NNW (340 degrees) at 6 MPH (5 knots; 2.6 m/s)
Visibility: 6 or more miles (10+ km)
Ceiling: at least 12,000 feet AGL
Clouds: few clouds at 2000 feet AGL
scattered clouds at 5000 feet AGL
Weather: no significant weather observed at this time

METAR text: NLWW 222100Z 31003KT 270V350 9999 SCT020 29/25 Q1008 NOSIG
Conditions at: NLWW (HIHIFO ILE WALLI, WS) observed 2100 UTC 22 January 2019
Temperature: 29.0°C (84°F)
Dewpoint: 25.0°C (77°F) [RH = 79%]
Pressure (altimeter): 29.76 inches Hg (1008.0 mb)
Winds: from the NW (310 degrees) at 3 MPH (3 knots; 1.5 m/s)
Visibility: 6 or more miles (10+ km)
Ceiling: at least 12,000 feet AGL
Clouds: scattered clouds at 2000 feet AGL
Weather: no significant weather observed at this time

METAR text: NLWW 222000Z 34007KT 290V030 9999 BKN016 27/24 Q1008 NOSIG
Conditions at: NLWW (HIHIFO ILE WALLI, WS) observed 2000 UTC 22 January 2019
Temperature: 27.0°C (81°F)
Dewpoint: 24.0°C (75°F) [RH = 84%]
Pressure (altimeter): 29.76 inches Hg (1008.0 mb)
Winds: from the NNW (340 degrees) at 8 MPH (7 knots; 3.6 m/s)
Visibility: 6 or more miles (10+ km)
Ceiling: 1600 feet AGL
Clouds: broken clouds at 1600 feet AGL
Weather: no significant weather observed at this time

METAR text: NLWW 221900Z 00000KT 9999 VCSH FEW018TCU 31/26 Q1007 NOSIG
Conditions at: NLWW (HIHIFO ILE WALLI, WS) observed 1900 UTC 22 January 2019
Temperature: 31.0°C (88°F)
Dewpoint: 26.0°C (79°F) [RH = 75%]
Pressure (altimeter): 29.73 inches Hg (1007.0 mb)
Winds: calm
Visibility: 6 or more miles (10+ km)
Ceiling: at least 12,000 feet AGL
Clouds: few clouds at 1800 feet AGL
Weather: VCSH  (showers in vicinity)

METAR text: NLWW 221800Z 00000KT 9999 FEW018 25/24 Q1007 NOSIG
Conditions at: NLWW (HIHIFO ILE WALLI, WS) observed 1800 UTC 22 January 2019
Temperature: 25.0°C (77°F)
Dewpoint: 24.0°C (75°F) [RH = 94%]
Pressure (altimeter): 29.73 inches Hg (1007.0 mb)
Winds: calm
Visibility: 6 or more miles (10+ km)
Ceiling: at least 12,000 feet AGL
Clouds: few clouds at 1800 feet AGL
Weather: no significant weather observed at this time

METAR text: NLWW 221700Z 00000KT 9999 FEW018 SCT050 25/24 Q1006 NOSIG
Conditions at: NLWW (HIHIFO ILE WALLI, WS) observed 1700 UTC 22 January 2019
Temperature: 25.0°C (77°F)
Dewpoint: 24.0°C (75°F) [RH = 94%]
Pressure (altimeter): 29.70 inches Hg (1006.0 mb)
Winds: calm
Visibility: 6 or more miles (10+ km)
Ceiling: at least 12,000 feet AGL
Clouds: few clouds at 1800 feet AGL
scattered clouds at 5000 feet AGL
Weather: no significant weather observed at this time

METAR text: NLWW 221600Z AUTO 00000KT 9999 NCD 25/24 Q1006 NOSIG
Conditions at: NLWW (HIHIFO ILE WALLI, WS) observed 1600 UTC 22 January 2019
Temperature: 25.0°C (77°F)
Dewpoint: 24.0°C (75°F) [RH = 94%]
Pressure (altimeter): 29.70 inches Hg (1006.0 mb)
Winds: calm
Visibility: 6 or more miles (10+ km)
Ceiling: at least 12,000 feet AGL
Clouds: sky clear below 12,000 feet AGL
Weather: no significant weather observed at this time

METAR text: NLWW 221500Z AUTO 00000KT 9999 NCD 25/24 Q1006 NOSIG
Conditions at: NLWW (HIHIFO ILE WALLI, WS) observed 1500 UTC 22 January 2019
Temperature: 25.0°C (77°F)
Dewpoint: 24.0°C (75°F) [RH = 94%]
Pressure (altimeter): 29.70 inches Hg (1006.0 mb)
Winds: calm
Visibility: 6 or more miles (10+ km)
Ceiling: at least 12,000 feet AGL
Clouds: sky clear below 12,000 feet AGL
Weather: no significant weather observed at this time

METAR text: NLWW 221400Z AUTO VRB01KT 9999 FEW027/// 26/25 Q1006 NOSIG
Conditions at: NLWW (HIHIFO ILE WALLI, WS) observed 1400 UTC 22 January 2019
Temperature: 26.0°C (79°F)
Dewpoint: 25.0°C (77°F) [RH = 94%]
Pressure (altimeter): 29.70 inches Hg (1006.0 mb)
Winds: variable direction winds at 1 MPH (1 knots; 0.5 m/s)
Visibility: 6 or more miles (10+ km)
Ceiling: at least 12,000 feet AGL
Clouds: few clouds at 2700 feet AGL
Weather: no significant weather observed at this time

METAR text: NLWW 221300Z AUTO 00000KT 9999 SCT023/// BKN032/// 26/25 Q1007 NOSIG
Conditions at: NLWW (HIHIFO ILE WALLI, WS) observed 1300 UTC 22 January 2019
Temperature: 26.0°C (79°F)
Dewpoint: 25.0°C (77°F) [RH = 94%]
Pressure (altimeter): 29.73 inches Hg (1007.0 mb)
Winds: calm
Visibility: 6 or more miles (10+ km)
Ceiling: 3200 feet AGL
Clouds: scattered clouds at 2300 feet AGL
broken clouds at 3200 feet AGL
Weather: no significant weather observed at this time

METAR text: NLWW 221200Z AUTO 00000KT 9999 NCD 26/25 Q1008 NOSIG
Conditions at: NLWW (HIHIFO ILE WALLI, WS) observed 1200 UTC 22 January 2019
Temperature: 26.0°C (79°F)
Dewpoint: 25.0°C (77°F) [RH = 94%]
Pressure (altimeter): 29.76 inches Hg (1008.0 mb)
Winds: calm
Visibility: 6 or more miles (10+ km)
Ceiling: at least 12,000 feet AGL
Clouds: sky clear below 12,000 feet AGL
Weather: no significant weather observed at this time

METAR text: NLWW 221100Z AUTO 00000KT 9999 NCD 26/25 Q1008 NOSIG
Conditions at: NLWW (HIHIFO ILE WALLI, WS) observed 1100 UTC 22 January 2019
Temperature: 26.0°C (79°F)
Dewpoint: 25.0°C (77°F) [RH = 94%]
Pressure (altimeter): 29.76 inches Hg (1008.0 mb)
Winds: calm
Visibility: 6 or more miles (10+ km)
Ceiling: at least 12,000 feet AGL
Clouds: sky clear below 12,000 feet AGL
Weather: no significant weather observed at this time

METAR text: NLWW 221000Z AUTO 00000KT 9999 NCD 26/25 Q1008 NOSIG
Conditions at: NLWW (HIHIFO ILE WALLI, WS) observed 1000 UTC 22 January 2019
Temperature: 26.0°C (79°F)
Dewpoint: 25.0°C (77°F) [RH = 94%]
Pressure (altimeter): 29.76 inches Hg (1008.0 mb)
Winds: calm
Visibility: 6 or more miles (10+ km)
Ceiling: at least 12,000 feet AGL
Clouds: sky clear below 12,000 feet AGL
Weather: no significant weather observed at this time

METAR text: NLWW 220900Z AUTO 00000KT 9999 BKN025/// BKN035/// 26/25 Q1008 NOSIG
Conditions at: NLWW (HIHIFO ILE WALLI, WS) observed 0900 UTC 22 January 2019
Temperature: 26.0°C (79°F)
Dewpoint: 25.0°C (77°F) [RH = 94%]
Pressure (altimeter): 29.76 inches Hg (1008.0 mb)
Winds: calm
Visibility: 6 or more miles (10+ km)
Ceiling: 2500 feet AGL
Clouds: broken clouds at 2500 feet AGL
broken clouds at 3500 feet AGL
Weather: no significant weather observed at this time

METAR text: NLWW 220800Z AUTO 00000KT 9999 NCD 26/25 Q1007 NOSIG
Conditions at: NLWW (HIHIFO ILE WALLI, WS) observed 0800 UTC 22 January 2019
Temperature: 26.0°C (79°F)
Dewpoint: 25.0°C (77°F) [RH = 94%]
Pressure (altimeter): 29.73 inches Hg (1007.0 mb)
Winds: calm
Visibility: 6 or more miles (10+ km)
Ceiling: at least 12,000 feet AGL
Clouds: sky clear below 12,000 feet AGL
Weather: no significant weather observed at this time

METAR text: NLWW 220700Z AUTO 00000KT 9999 NCD 27/25 Q1006 NOSIG
Conditions at: NLWW (HIHIFO ILE WALLI, WS) observed 0700 UTC 22 January 2019
Temperature: 27.0°C (81°F)
Dewpoint: 25.0°C (77°F) [RH = 89%]
Pressure (altimeter): 29.70 inches Hg (1006.0 mb)
Winds: calm
Visibility: 6 or more miles (10+ km)
Ceiling: at least 12,000 feet AGL
Clouds: sky clear below 12,000 feet AGL
Weather: no significant weather observed at this time

METAR text: NLWW 220600Z AUTO 02002KT 9999 NCD 30/24 Q1006 NOSIG
Conditions at: NLWW (HIHIFO ILE WALLI, WS) observed 0600 UTC 22 January 2019
Temperature: 30.0°C (86°F)
Dewpoint: 24.0°C (75°F) [RH = 70%]
Pressure (altimeter): 29.70 inches Hg (1006.0 mb)
Winds: from the NNE (20 degrees) at 2 MPH (2 knots; 1.0 m/s)
Visibility: 6 or more miles (10+ km)
Ceiling: at least 12,000 feet AGL
Clouds: sky clear below 12,000 feet AGL
Weather: no significant weather observed at this time

METAR text: NLWW 220500Z AUTO VRB01KT 9999 NCD 32/25 Q1005 NOSIG
Conditions at: NLWW (HIHIFO ILE WALLI, WS) observed 0500 UTC 22 January 2019
Temperature: 32.0°C (90°F)
Dewpoint: 25.0°C (77°F) [RH = 67%]
Pressure (altimeter): 29.68 inches Hg (1005.0 mb)
Winds: variable direction winds at 1 MPH (1 knots; 0.5 m/s)
Visibility: 6 or more miles (10+ km)
Ceiling: at least 12,000 feet AGL
Clouds: sky clear below 12,000 feet AGL
Weather: no significant weather observed at this time

METAR text: NLWW 220400Z 28004KT 210V340 9999 SCT030 31/24 Q1005 NOSIG
Conditions at: NLWW (HIHIFO ILE WALLI, WS) observed 0400 UTC 22 January 2019
Temperature: 31.0°C (88°F)
Dewpoint: 24.0°C (75°F) [RH = 66%]
Pressure (altimeter): 29.68 inches Hg (1005.0 mb)
Winds: from the W (280 degrees) at 5 MPH (4 knots; 2.1 m/s)
Visibility: 6 or more miles (10+ km)
Ceiling: at least 12,000 feet AGL
Clouds: scattered clouds at 3000 feet AGL
Weather: no significant weather observed at this time

METAR text: NLWW 220300Z 26004KT 200V300 9999 SCT025 32/25 Q1006 NOSIG
Conditions at: NLWW (HIHIFO ILE WALLI, WS) observed 0300 UTC 22 January 2019
Temperature: 32.0°C (90°F)
Dewpoint: 25.0°C (77°F) [RH = 67%]
Pressure (altimeter): 29.70 inches Hg (1006.0 mb)
Winds: from the W (260 degrees) at 5 MPH (4 knots; 2.1 m/s)
Visibility: 6 or more miles (10+ km)
Ceiling: at least 12,000 feet AGL
Clouds: scattered clouds at 2500 feet AGL
Weather: no significant weather observed at this time

Forecast for: NLWW (HIHIFO ILE WALLI, WS)
Text: TAF NLWW 231100Z 2312/2412 VRB02KT 9999 SCT020
Forecast period: 1200 UTC 23 January 2019 to 1200 UTC 24 January 2019
Forecast type: FROM: standard forecast or significant change
Winds: variable direction winds at 2 MPH (2 knots; 1.0 m/s)
Visibility: 6 or more miles 10+ km)
Ceiling: at least 12,000 feet AGL
Clouds: scattered clouds at 2000 feet AGL
Weather: no significant weather forecast for this period
Text: TEMPO 2312/2412 4000 SHRA FEW018CB
Forecast period: 1200 UTC 23 January 2019 to 1200 UTC 24 January 2019
Forecast type: TEMPORARY: The following changes expected for less than half the time period
Visibility: 2.49 miles (4.01 km)
Ceiling: at least 12,000 feet AGL
Clouds: few clouds at 1800 feet AGL
Weather: SHRA  (rain showers)
Text: PROB40
Forecast period: 2100 UTC 23 January 2019 to 1200 UTC 24 January 2019
Forecast type: TEMPORARY: The following changes expected for less than half the time period
Visibility: 1.24 miles (2.00 km)
Ceiling: 1200 feet AGL
Clouds: broken clouds at 1200 feet AGL
scattered clouds at 1600 feet AGL
Weather: +SHRA  (heavy rain showers)